Time;durP1;ratioP1;P1;durP2;ratioP2;P2;SDS_P1;SDS_P2;PMS_P1;PMS_P2;Temp;Humidity;BMP_temperature;BMP_pressure;BME280_temperature;BME280_humidity;BME280_pressure;Samples;Min_cycle;Max_cycle;Signal;HPM_P1;HPM_P2
2023/08/11 00:02:01;;;;;;;;;;;;;;;25.71;52.75;101394.09;5098789;28;19964;-84
2023/08/11 00:04:26;;;;;;;;;;;;;;;25.71;52.13;101399.44;5104059;27;19973;-84
2023/08/11 00:06:52;;;;;;;;;;;;;;;25.68;52.31;101394.09;5095728;28;19916;-83
2023/08/11 00:09:18;;;;;;;;;;;;;;;25.67;52.56;101394.97;5077403;28;19920;-84
2023/08/11 00:11:44;;;;;;;;;;;;;;;25.68;52.27;101389.63;5095583;28;20343;-83
2023/08/11 00:14:09;;;;;;;;;;;;;;;25.68;52.21;101381.59;5100137;28;20488;-83
2023/08/11 00:16:35;;;;;;;;;;;;;;;25.68;52.33;101392.31;5097978;28;19923;-83
2023/08/11 00:19:00;;;;;;;;;;;;;;;25.71;51.79;101388.72;5096118;28;20416;-83
2023/08/11 00:21:26;;;;;;;;;;;;;;;25.67;52.11;101395.84;5098287;28;19951;-84
2023/08/11 00:23:52;;;;;;;;;;;;;;;25.68;51.96;101397.66;5105298;28;19958;-83
2023/08/11 00:26:17;;;;;;;;;;;;;;;25.68;52.28;101404.78;5096302;28;19915;-84
2023/08/11 00:28:44;;;;;;;;;;;;;;;25.67;51.86;101406.56;5114033;28;20399;-84
2023/08/11 00:31:09;;;;;;;;;;;;;;;25.66;52.24;101403.91;5097282;28;19995;-84
2023/08/11 00:33:36;;;;;;;;;;;;;;;25.66;52.13;101396.75;5104546;28;20026;-84
2023/08/11 00:36:01;;;;;;;;;;;;;;;25.60;52.23;101392.28;5079657;28;20309;-84
2023/08/11 00:38:35;;;;;;;;;;;;;;;25.63;52.02;101386.03;5093527;28;19912;-84
2023/08/11 00:41:01;;;;;;;;;;;;;;;25.66;51.86;101377.16;5075545;28;20182;-84
2023/08/11 00:43:27;;;;;;;;;;;;;;;25.65;51.54;101370.88;5104604;28;19969;-84
2023/08/11 00:45:52;;;;;;;;;;;;;;;25.64;51.74;101377.13;5093805;28;19916;-84
2023/08/11 00:48:17;;;;;;;;;;;;;;;25.64;51.68;101377.13;5093569;28;20375;-84
2023/08/11 00:50:43;;;;;;;;;;;;;;;25.65;51.58;101378.03;5095645;28;20346;-84
2023/08/11 00:53:09;;;;;;;;;;;;;;;25.64;51.37;101373.56;5106421;28;20441;-84
2023/08/11 00:55:35;;;;;;;;;;;;;;;25.64;51.70;101379.81;5094576;28;19913;-84
2023/08/11 00:58:01;;;;;;;;;;;;;;;25.63;51.43;101378.00;5099542;28;19923;-83
2023/08/11 01:00:28;;;;;;;;;;;;;;;25.60;51.75;101378.03;5098088;28;20294;-85
2023/08/11 01:02:53;;;;;;;;;;;;;;;25.61;51.64;101382.47;5108954;28;19958;-84
2023/08/11 01:05:19;;;;;;;;;;;;;;;25.62;51.60;101383.38;5097895;28;19978;-84
2023/08/11 01:07:53;;;;;;;;;;;;;;;25.60;51.43;101376.22;5095996;28;19947;-83
2023/08/11 01:10:38;;;;;;;;;;;;;;;25.59;51.40;101378.94;5114696;28;20026;-83
2023/08/11 01:13:03;;;;;;;;;;;;;;;25.56;51.24;101370.88;5115740;27;19973;-83
2023/08/11 01:15:29;;;;;;;;;;;;;;;25.53;51.47;101378.91;5114762;28;19919;-82
2023/08/11 01:17:55;;;;;;;;;;;;;;;25.58;51.49;101371.78;5113546;28;19912;-84
2023/08/11 01:20:20;;;;;;;;;;;;;;;25.58;51.11;101379.78;5113564;28;19919;-83
2023/08/11 01:22:47;;;;;;;;;;;;;;;25.57;51.30;101380.69;5122750;27;20414;-82
2023/08/11 01:25:12;;;;;;;;;;;;;;;25.57;51.22;101372.69;5114772;27;19920;-83
2023/08/11 01:27:45;;;;;;;;;;;;;;;25.55;51.31;101375.34;5114490;28;19919;-84
2023/08/11 01:30:12;;;;;;;;;;;;;;;25.56;51.20;101384.25;5114680;28;20373;-83
2023/08/11 01:32:38;;;;;;;;;;;;;;;25.52;51.30;101375.31;5127519;27;20384;-82
2023/08/11 01:35:05;;;;;;;;;;;;;;;25.50;51.16;101385.13;5124214;27;20210;-84
2023/08/11 01:37:31;;;;;;;;;;;;;;;25.51;51.22;101373.56;5114356;28;19965;-84
2023/08/11 01:39:57;;;;;;;;;;;;;;;25.50;51.20;101381.56;5114392;28;19938;-84
2023/08/11 01:42:22;;;;;;;;;;;;;;;25.39;51.21;101379.75;5115783;27;19916;-84
2023/08/11 01:44:48;;;;;;;;;;;;;;;25.46;51.45;101379.75;5116245;27;20428;-84
2023/08/11 01:47:13;;;;;;;;;;;;;;;25.49;50.97;101385.13;5102864;27;19919;-84
2023/08/11 01:49:39;;;;;;;;;;;;;;;25.45;51.09;101386.03;5122463;27;20373;-83
2023/08/11 01:52:04;;;;;;;;;;;;;;;25.32;51.04;101385.97;5122278;27;20449;-84
2023/08/11 01:54:29;;;;;;;;;;;;;;;25.44;51.01;101384.22;5118870;27;20035;-84
2023/08/11 01:56:55;;;;;;;;;;;;;;;25.39;51.26;101387.78;5114010;27;19922;-83
2023/08/11 01:59:20;;;;;;;;;;;;;;;25.27;51.13;101378.81;5130107;27;20439;-83
2023/08/11 02:01:46;;;;;;;;;;;;;;;25.30;51.33;101387.75;5131380;27;19930;-82
2023/08/11 02:04:12;;;;;;;;;;;;;;;25.31;51.08;101388.63;5130156;27;19912;-82
2023/08/11 02:06:39;;;;;;;;;;;;;;;25.38;51.19;101386.00;5123641;27;19918;-81
2023/08/11 02:09:07;;;;;;;;;;;;;;;25.45;51.00;101397.59;5116119;27;19927;-83
2023/08/11 02:11:33;;;;;;;;;;;;;;;25.32;50.96;101391.31;5123492;27;19922;-82
2023/08/11 02:13:58;;;;;;;;;;;;;;;25.28;51.23;101399.34;5128446;27;19916;-83
2023/08/11 02:16:24;;;;;;;;;;;;;;;25.34;51.04;101388.66;5121509;27;19916;-82
2023/08/11 02:18:49;;;;;;;;;;;;;;;25.31;50.91;101386.84;5115976;27;19912;-82
2023/08/11 02:21:15;;;;;;;;;;;;;;;25.28;50.94;101385.97;5122870;27;19915;-82
2023/08/11 02:23:41;;;;;;;;;;;;;;;25.18;51.05;101395.69;5115592;27;19951;-83
2023/08/11 02:26:07;;;;;;;;;;;;;;;25.25;51.09;101397.56;5125342;27;19955;-83
2023/08/11 02:28:33;;;;;;;;;;;;;;;25.28;50.80;101396.66;5115024;27;20377;-83
2023/08/11 02:30:58;;;;;;;;;;;;;;;25.24;51.03;101398.41;5114891;27;19927;-83
2023/08/11 02:33:23;;;;;;;;;;;;;;;25.18;51.14;101399.25;5106035;28;19912;-84
2023/08/11 02:35:49;;;;;;;;;;;;;;;25.14;51.04;101399.25;5113209;28;20003;-83
2023/08/11 02:38:14;;;;;;;;;;;;;;;25.09;51.26;101404.56;5094460;28;20369;-83
2023/08/11 02:40:40;;;;;;;;;;;;;;;25.12;51.19;101393.00;5094080;27;19916;-84
2023/08/11 02:43:07;;;;;;;;;;;;;;;25.16;50.96;101398.34;5110909;28;19920;-84
2023/08/11 02:45:32;;;;;;;;;;;;;;;25.20;50.75;101399.28;5112318;28;19916;-85
2023/08/11 02:47:58;;;;;;;;;;;;;;;25.16;51.04;101406.38;5116522;27;20403;-85
2023/08/11 02:50:23;;;;;;;;;;;;;;;25.10;51.00;101408.13;5116903;27;19923;-85
2023/08/11 02:52:52;;;;;;;;;;;;;;;25.11;51.17;101408.16;5114806;27;19920;-86
2023/08/11 02:55:17;;;;;;;;;;;;;;;25.12;51.06;101407.25;5112196;28;19919;-85
2023/08/11 02:57:46;;;;;;;;;;;;;;;25.13;51.04;101413.50;5111673;28;20209;-85
2023/08/11 03:00:14;;;;;;;;;;;;;;;25.17;50.82;101409.97;5112884;27;19998;-84
2023/08/11 03:02:46;;;;;;;;;;;;;;;25.10;51.42;101406.34;5124548;27;19915;-85
2023/08/11 03:05:11;;;;;;;;;;;;;;;25.01;51.24;101411.66;5129773;27;19957;-83
2023/08/11 03:07:40;;;;;;;;;;;;;;;25.04;51.20;101411.69;5112036;28;19911;-83
2023/08/11 03:10:07;;;;;;;;;;;;;;;25.05;51.06;101418.81;5113217;27;19920;-83
2023/08/11 03:12:32;;;;;;;;;;;;;;;25.01;51.06;101416.13;5118945;27;19915;-83
2023/08/11 03:14:58;;;;;;;;;;;;;;;25.08;50.83;101425.94;5114141;27;19985;-83
2023/08/11 03:17:23;;;;;;;;;;;;;;;25.17;51.07;101428.66;5111120;28;19912;-84
2023/08/11 03:19:48;;;;;;;;;;;;;;;25.18;50.75;101425.97;5120521;27;19912;-82
2023/08/11 03:22:17;;;;;;;;;;;;;;;25.18;50.69;101427.75;5118009;27;20441;-84
2023/08/11 03:24:44;;;;;;;;;;;;;;;25.23;51.02;101423.38;5111542;28;19934;-85
2023/08/11 03:27:09;;;;;;;;;;;;;;;25.23;50.92;101425.16;5098473;27;19966;-84
2023/08/11 03:29:35;;;;;;;;;;;;;;;25.15;50.83;101425.09;5115383;27;19952;-83
2023/08/11 03:32:00;;;;;;;;;;;;;;;25.20;51.08;101426.03;5112740;28;19916;-83
2023/08/11 03:34:25;;;;;;;;;;;;;;;25.11;51.20;101423.28;5113831;27;20319;-83
2023/08/11 03:36:51;;;;;;;;;;;;;;;24.98;51.17;101425.91;5130167;27;20300;-84
2023/08/11 03:39:16;;;;;;;;;;;;;;;25.11;51.33;101433.97;5096553;28;20321;-84
2023/08/11 03:41:42;;;;;;;;;;;;;;;25.09;51.12;101433.09;5103978;28;19919;-84
2023/08/11 03:44:07;;;;;;;;;;;;;;;25.02;51.09;101447.28;5113008;28;20577;-84
2023/08/11 03:46:33;;;;;;;;;;;;;;;25.06;51.41;101447.34;5111961;28;19919;-86
2023/08/11 03:48:58;;;;;;;;;;;;;;;25.04;50.82;101443.75;5118580;28;20384;-84
2023/08/11 03:51:23;;;;;;;;;;;;;;;24.97;51.18;101448.16;5129157;27;19919;-85
2023/08/11 03:53:49;;;;;;;;;;;;;;;24.90;51.34;101450.78;5125566;28;20444;-85
2023/08/11 03:56:15;;;;;;;;;;;;;;;24.94;51.23;101463.28;5111777;27;20458;-84
2023/08/11 03:58:40;;;;;;;;;;;;;;;25.04;51.05;101457.13;5108565;28;20404;-85
2023/08/11 04:01:06;;;;;;;;;;;;;;;25.02;51.07;101468.66;5119812;27;19919;-84
2023/08/11 04:03:31;;;;;;;;;;;;;;;25.07;50.84;101467.81;5121419;27;19915;-85
2023/08/11 04:05:57;;;;;;;;;;;;;;;24.99;51.01;101458.84;5121732;27;20559;-85
2023/08/11 04:08:23;;;;;;;;;;;;;;;24.90;51.51;101457.03;5088964;28;19924;-84
2023/08/11 04:10:48;;;;;;;;;;;;;;;24.92;51.07;101463.28;5101191;28;19964;-83
2023/08/11 04:13:14;;;;;;;;;;;;;;;24.94;51.09;101463.28;5098207;28;19923;-83
2023/08/11 04:15:39;;;;;;;;;;;;;;;24.93;51.38;101465.06;5103909;28;20405;-85
2023/08/11 04:18:05;;;;;;;;;;;;;;;24.90;51.27;101459.69;5108354;28;19975;-86
2023/08/11 04:20:30;;;;;;;;;;;;;;;24.84;51.15;101461.44;5103531;28;20358;-86
2023/08/11 04:22:56;;;;;;;;;;;;;;;24.94;50.96;101463.28;5092045;28;19959;-83
2023/08/11 04:25:21;;;;;;;;;;;;;;;24.98;51.19;101468.66;5097166;28;19916;-84
2023/08/11 04:27:46;;;;;;;;;;;;;;;25.09;50.92;101462.47;5095499;28;20007;-84
2023/08/11 04:30:12;;;;;;;;;;;;;;;25.11;50.61;101472.28;5085026;28;19986;-85
2023/08/11 04:32:38;;;;;;;;;;;;;;;25.14;50.62;101476.75;5097913;28;20377;-83
2023/08/11 04:35:09;;;;;;;;;;;;;;;25.06;50.97;101476.72;5100284;28;19919;-83
2023/08/11 04:37:35;;;;;;;;;;;;;;;24.99;50.98;101470.44;5108015;28;19916;-84
2023/08/11 04:40:03;;;;;;;;;;;;;;;25.13;51.08;101475.88;5104034;27;19923;-84
2023/08/11 04:42:28;;;;;;;;;;;;;;;25.10;51.05;101477.63;5096397;28;19927;-83
2023/08/11 04:44:55;;;;;;;;;;;;;;;25.18;50.69;101481.22;5103584;28;19916;-84
2023/08/11 04:47:20;;;;;;;;;;;;;;;24.94;50.98;101473.97;5096316;28;19953;-83
2023/08/11 04:49:46;;;;;;;;;;;;;;;25.00;50.79;101471.34;5107406;28;19926;-84
2023/08/11 04:52:12;;;;;;;;;;;;;;;24.93;50.81;101477.53;5111634;28;20401;-83
2023/08/11 04:54:38;;;;;;;;;;;;;;;24.91;50.89;101480.22;5099863;28;19975;-82
2023/08/11 04:57:03;;;;;;;;;;;;;;;24.80;51.13;101468.53;5102168;28;20022;-83
2023/08/11 04:59:55;;;;;;;;;;;;;;;24.81;51.07;101481.03;5088915;28;19926;-83
2023/08/11 05:02:20;;;;;;;;;;;;;;;24.85;51.09;101493.53;5088655;28;19919;-84
2023/08/11 05:04:46;;;;;;;;;;;;;;;24.84;51.22;101491.72;5109068;28;19926;-81
2023/08/11 05:07:11;;;;;;;;;;;;;;;24.79;51.27;101490.81;5084338;28;19915;-82
2023/08/11 05:09:37;;;;;;;;;;;;;;;24.85;50.89;101497.94;5092008;28;19920;-82
2023/08/11 05:12:06;;;;;;;;;;;;;;;24.84;51.06;101501.53;5104431;28;20377;-83
2023/08/11 05:14:33;;;;;;;;;;;;;;;24.90;50.74;101496.22;5078532;28;19920;-84
2023/08/11 05:17:00;;;;;;;;;;;;;;;24.81;51.15;101488.13;5101331;28;19916;-83
2023/08/11 05:19:25;;;;;;;;;;;;;;;24.82;50.88;101501.50;5101159;28;19969;-83
2023/08/11 05:21:51;;;;;;;;;;;;;;;24.79;51.09;101505.06;5102088;28;20393;-84
2023/08/11 05:24:16;;;;;;;;;;;;;;;24.86;51.03;101500.63;5109072;28;20002;-85
2023/08/11 05:26:42;;;;;;;;;;;;;;;24.86;50.98;101507.75;5082492;28;19920;-81
2023/08/11 05:29:07;;;;;;;;;;;;;;;24.82;51.06;101508.63;5087096;28;20042;-84
2023/08/11 05:31:33;;;;;;;;;;;;;;;24.79;50.96;101506.84;5084337;28;19949;-83
2023/08/11 05:33:58;;;;;;;;;;;;;;;24.85;50.81;101509.56;5106124;28;19920;-84
2023/08/11 05:36:24;;;;;;;;;;;;;;;24.87;50.88;101504.19;5102129;28;19916;-85
2023/08/11 05:38:49;;;;;;;;;;;;;;;24.81;50.96;101509.50;5095977;28;19920;-82
2023/08/11 05:41:15;;;;;;;;;;;;;;;24.83;51.01;101511.31;5108935;28;20411;-82
2023/08/11 05:43:40;;;;;;;;;;;;;;;24.85;50.84;101513.97;5101976;28;20380;-82
2023/08/11 05:46:08;;;;;;;;;;;;;;;24.81;50.99;101515.75;5098866;28;19928;-81
2023/08/11 05:48:35;;;;;;;;;;;;;;;24.79;50.87;101517.53;5109183;28;20534;-82
2023/08/11 05:51:01;;;;;;;;;;;;;;;24.78;50.96;101519.28;5074191;28;19919;-82
2023/08/11 05:53:27;;;;;;;;;;;;;;;24.78;51.11;101524.63;5091779;28;20425;-82
2023/08/11 05:55:52;;;;;;;;;;;;;;;24.86;50.79;101515.78;5100069;28;20014;-82
2023/08/11 05:58:18;;;;;;;;;;;;;;;24.81;51.07;101513.09;5100157;28;21718;-82
2023/08/11 06:00:43;;;;;;;;;;;;;;;24.78;51.03;101513.94;5094851;28;19945;-81
2023/08/11 06:03:09;;;;;;;;;;;;;;;24.79;51.15;101518.41;5103085;27;19916;-81
2023/08/11 06:05:34;;;;;;;;;;;;;;;24.82;50.74;101517.53;5108685;28;20403;-81
2023/08/11 06:07:59;;;;;;;;;;;;;;;24.81;50.82;101520.19;5083776;28;20388;-81
2023/08/11 06:10:26;;;;;;;;;;;;;;;24.90;50.67;101530.97;5106906;28;19913;-81
2023/08/11 06:12:52;;;;;;;;;;;;;;;24.87;50.59;101518.47;5106473;28;19916;-82
2023/08/11 06:15:17;;;;;;;;;;;;;;;24.86;50.73;101521.13;5093849;28;20294;-82
2023/08/11 06:17:49;;;;;;;;;;;;;;;24.86;50.76;101519.34;5094241;28;20306;-83
2023/08/11 06:20:15;;;;;;;;;;;;;;;24.89;50.83;101519.38;5095170;28;20443;-83
2023/08/11 06:22:40;;;;;;;;;;;;;;;24.85;50.66;101509.56;5098835;28;19944;-81
2023/08/11 06:25:06;;;;;;;;;;;;;;;24.82;50.98;101520.19;5107013;27;20229;-82
2023/08/11 06:27:31;;;;;;;;;;;;;;;24.87;50.75;101517.56;5097580;28;20395;-82
2023/08/11 06:29:57;;;;;;;;;;;;;;;24.82;50.84;101511.28;5099994;28;20401;-83
2023/08/11 06:32:22;;;;;;;;;;;;;;;24.79;51.09;101512.19;5097643;28;20405;-83
2023/08/11 06:34:50;;;;;;;;;;;;;;;24.83;50.70;101514.00;5100967;28;20391;-83
2023/08/11 06:37:17;;;;;;;;;;;;;;;24.85;50.70;101516.66;5063733;28;19995;-82
2023/08/11 06:39:43;;;;;;;;;;;;;;;24.87;50.60;101515.81;5104609;28;19916;-81
2023/08/11 06:42:08;;;;;;;;;;;;;;;24.89;50.71;101527.41;5099904;28;19939;-82
2023/08/11 06:44:33;;;;;;;;;;;;;;;24.86;50.65;101522.00;5092307;27;20412;-81
2023/08/11 06:46:59;;;;;;;;;;;;;;;24.87;50.84;101528.25;5096192;27;19912;-82
2023/08/11 06:49:24;;;;;;;;;;;;;;;24.81;50.85;101529.13;5092427;28;20404;-82
2023/08/11 06:51:50;;;;;;;;;;;;;;;24.86;50.87;101527.34;5074500;28;19912;-82
2023/08/11 06:54:15;;;;;;;;;;;;;;;24.81;50.98;101523.78;5094939;28;19926;-82
2023/08/11 06:56:40;;;;;;;;;;;;;;;24.88;50.85;101528.25;5099636;27;19916;-82
2023/08/11 06:59:07;;;;;;;;;;;;;;;24.84;50.70;101517.56;5103485;28;19916;-82
2023/08/11 07:01:33;;;;;;;;;;;;;;;24.85;50.82;101530.94;5092552;28;19959;-80
2023/08/11 07:03:58;;;;;;;;;;;;;;;24.91;50.47;101525.63;5112392;27;19947;-83
2023/08/11 07:06:23;;;;;;;;;;;;;;;24.91;50.81;101530.06;5108764;28;19915;-81
2023/08/11 07:08:49;;;;;;;;;;;;;;;24.91;50.77;101527.38;5122014;27;19920;-83
2023/08/11 07:11:14;;;;;;;;;;;;;;;24.91;50.46;101530.06;5114818;27;19922;-85
2023/08/11 07:13:40;;;;;;;;;;;;;;;24.97;50.42;101533.66;5131861;27;19912;-84
2023/08/11 07:16:05;;;;;;;;;;;;;;;24.92;50.73;101531.88;5112227;27;19915;-83
2023/08/11 07:18:31;;;;;;;;;;;;;;;24.93;50.45;101536.31;5119271;27;20041;-82
2023/08/11 07:20:56;;;;;;;;;;;;;;;24.91;50.45;101533.66;5131101;27;19971;-85
2023/08/11 07:23:23;;;;;;;;;;;;;;;25.00;50.31;101530.13;5130016;27;19915;-85
2023/08/11 07:25:48;;;;;;;;;;;;;;;25.04;50.35;101526.59;5119085;27;20348;-84
2023/08/11 07:28:14;;;;;;;;;;;;;;;25.05;50.15;101527.50;5114284;27;20056;-82
2023/08/11 07:30:39;;;;;;;;;;;;;;;24.96;50.41;101531.88;5126984;27;19915;-83
2023/08/11 07:33:05;;;;;;;;;;;;;;;24.95;50.51;101531.88;5111206;27;19918;-85
2023/08/11 07:35:30;;;;;;;;;;;;;;;24.93;50.50;101528.28;5129882;27;19919;-83
2023/08/11 07:37:56;;;;;;;;;;;;;;;25.01;50.25;101526.56;5127478;27;19957;-84
2023/08/11 07:40:22;;;;;;;;;;;;;;;25.02;50.44;101528.38;5129663;27;20015;-84
2023/08/11 07:42:52;;;;;;;;;;;;;;;25.01;50.48;101531.91;5124138;27;19960;-85
2023/08/11 07:45:19;;;;;;;;;;;;;;;24.96;50.48;101529.22;5103908;28;19995;-83
2023/08/11 07:47:45;;;;;;;;;;;;;;;24.98;50.39;101530.13;5129699;28;19951;-84
2023/08/11 07:50:10;;;;;;;;;;;;;;;24.99;50.45;101526.53;5110177;28;19919;-85
2023/08/11 07:52:36;;;;;;;;;;;;;;;24.99;50.67;101520.31;5098716;28;20344;-86
2023/08/11 07:55:01;;;;;;;;;;;;;;;24.99;50.40;101525.66;5117093;28;19941;-85
2023/08/11 07:57:27;;;;;;;;;;;;;;;25.02;50.33;101528.38;5099044;28;20456;-85
2023/08/11 07:59:53;;;;;;;;;;;;;;;25.02;50.29;101524.78;5103619;28;19969;-85
2023/08/11 08:02:19;;;;;;;;;;;;;;;25.02;50.36;101527.44;5113020;28;20013;-86
2023/08/11 08:05:28;;;;;;;;;;;;;;;25.05;50.28;101522.16;5128253;27;20011;-90
2023/08/11 08:07:54;;;;;;;;;;;;;;;25.11;50.33;101522.19;5016019;28;19921;-86
2023/08/11 08:10:21;;;;;;;;;;;;;;;25.10;50.37;101515.03;5088049;28;19973;-88
2023/08/11 08:12:46;;;;;;;;;;;;;;;25.06;50.42;101518.56;5106269;28;19927;-86
2023/08/11 08:15:12;;;;;;;;;;;;;;;25.08;50.03;101527.50;5098851;28;19916;-87
2023/08/11 08:17:38;;;;;;;;;;;;;;;25.13;50.15;101523.97;5115222;28;19951;-88
2023/08/11 08:20:13;;;;;;;;;;;;;;;25.09;50.36;101519.50;5096549;28;19965;-86
2023/08/11 08:22:39;;;;;;;;;;;;;;;25.07;50.13;101523.94;5129814;27;19927;-85
2023/08/11 08:25:06;;;;;;;;;;;;;;;25.08;50.13;101523.06;5111578;27;19912;-85
2023/08/11 08:27:32;;;;;;;;;;;;;;;25.06;50.29;101519.50;5094658;28;19967;-86
2023/08/11 08:29:58;;;;;;;;;;;;;;;25.07;50.36;101526.59;5110030;28;19912;-86
2023/08/11 08:32:24;;;;;;;;;;;;;;;25.15;50.31;101529.34;5092913;28;20296;-85
2023/08/11 08:34:49;;;;;;;;;;;;;;;25.15;50.33;101529.34;5110148;28;19923;-86
2023/08/11 08:37:16;;;;;;;;;;;;;;;25.17;49.91;101515.09;5124443;27;19916;-85
2023/08/11 08:39:43;;;;;;;;;;;;;;;25.14;50.22;101528.41;5126472;27;20517;-88
2023/08/11 08:42:09;;;;;;;;;;;;;;;25.16;49.93;101532.00;5108329;28;19920;-86
2023/08/11 08:44:35;;;;;;;;;;;;;;;25.17;50.07;101541.81;5121447;27;19916;-90
2023/08/11 08:47:01;;;;;;;;;;;;;;;25.19;49.98;101539.16;5106083;27;20416;-86
2023/08/11 08:49:26;;;;;;;;;;;;;;;25.12;49.91;101540.88;5095088;28;19953;-85
2023/08/11 08:51:55;;;;;;;;;;;;;;;25.17;50.21;101546.28;5103852;28;19916;-86
2023/08/11 08:54:21;;;;;;;;;;;;;;;25.12;49.58;101542.66;5113667;27;19927;-86
2023/08/11 08:56:46;;;;;;;;;;;;;;;25.18;50.05;101545.38;5108989;27;19916;-86
2023/08/11 08:59:11;;;;;;;;;;;;;;;25.23;49.58;101549.03;5120903;27;20048;-86
2023/08/11 09:01:37;;;;;;;;;;;;;;;25.23;49.79;101545.44;5096336;27;20325;-86
2023/08/11 09:04:03;;;;;;;;;;;;;;;25.25;50.20;101549.00;5096504;28;19915;-85
2023/08/11 09:06:28;;;;;;;;;;;;;;;25.27;50.07;101550.81;5105853;28;19923;-85
2023/08/11 09:08:54;;;;;;;;;;;;;;;25.22;49.84;101555.25;5102209;27;19923;-85
2023/08/11 09:11:21;;;;;;;;;;;;;;;25.26;50.02;101557.06;5093274;28;19923;-86
2023/08/11 09:13:48;;;;;;;;;;;;;;;25.26;50.21;101562.41;5098517;28;19927;-88
2023/08/11 09:16:13;;;;;;;;;;;;;;;25.31;49.70;101563.31;5110585;27;19920;-85
2023/08/11 09:18:39;;;;;;;;;;;;;;;25.29;49.79;101565.06;5109734;28;19920;-85
2023/08/11 09:21:05;;;;;;;;;;;;;;;25.27;50.21;101566.84;5112698;27;20440;-85
2023/08/11 09:23:31;;;;;;;;;;;;;;;25.21;50.29;101568.59;5116492;27;19916;-83
2023/08/11 09:25:58;;;;;;;;;;;;;;;25.21;49.83;101568.59;5100775;27;20015;-84
2023/08/11 09:28:23;;;;;;;;;;;;;;;25.24;49.50;101568.63;5113973;27;19920;-84
2023/08/11 09:30:50;;;;;;;;;;;;;;;25.28;50.18;101565.97;5105724;27;19916;-85
2023/08/11 09:33:15;;;;;;;;;;;;;;;25.24;49.69;101577.53;5103919;27;19916;-85
2023/08/11 09:35:41;;;;;;;;;;;;;;;25.29;49.86;101559.72;5116409;27;19980;-84
2023/08/11 09:38:06;;;;;;;;;;;;;;;25.36;50.10;101572.28;5124619;27;19927;-86
2023/08/11 09:40:32;;;;;;;;;;;;;;;25.34;50.09;101562.47;5097397;27;19916;-85
2023/08/11 09:42:59;;;;;;;;;;;;;;;25.27;50.14;101566.84;5093846;28;19924;-86
2023/08/11 09:45:24;;;;;;;;;;;;;;;25.30;49.99;101566.00;5099169;28;20006;-85
2023/08/11 09:47:49;;;;;;;;;;;;;;;25.29;50.35;101574.88;5102582;28;19999;-84
2023/08/11 09:50:15;;;;;;;;;;;;;;;25.35;50.08;101564.22;5098252;28;19963;-85
2023/08/11 09:52:41;;;;;;;;;;;;;;;25.29;50.16;101562.41;5103929;28;20443;-86
2023/08/11 09:55:08;;;;;;;;;;;;;;;25.28;50.35;101565.97;5098953;28;20186;-87
2023/08/11 09:57:34;;;;;;;;;;;;;;;25.32;50.24;101565.13;5110027;28;20320;-85
2023/08/11 10:00:00;;;;;;;;;;;;;;;25.29;50.28;101572.22;5104645;28;20674;-90
2023/08/11 10:02:27;;;;;;;;;;;;;;;25.50;49.35;101575.00;5111897;28;19919;-84
2023/08/11 10:04:57;;;;;;;;;;;;;;;25.51;49.62;101568.78;5106923;27;20305;-87
2023/08/11 10:07:23;;;;;;;;;;;;;;;25.53;49.87;101563.44;5103102;27;20058;-87
2023/08/11 10:09:48;;;;;;;;;;;;;;;25.40;50.03;101567.84;5103964;28;20038;-87
2023/08/11 10:12:13;;;;;;;;;;;;;;;25.44;50.13;101579.44;5117325;27;19931;-85
2023/08/11 10:14:39;;;;;;;;;;;;;;;25.44;50.11;101566.94;5108890;28;20006;-86
2023/08/11 10:17:04;;;;;;;;;;;;;;;25.45;50.17;101563.41;5101660;28;19982;-86
2023/08/11 10:19:30;;;;;;;;;;;;;;;25.49;50.25;101570.56;5113217;27;19935;-85
2023/08/11 10:21:56;;;;;;;;;;;;;;;25.47;50.50;101564.31;5126965;27;19935;-85
2023/08/11 10:24:21;;;;;;;;;;;;;;;25.50;50.78;101571.44;5112430;28;19915;-84
2023/08/11 10:26:47;;;;;;;;;;;;;;;25.46;50.68;101564.28;5100602;28;19984;-84
2023/08/11 10:29:12;;;;;;;;;;;;;;;25.46;50.58;101558.94;5120014;27;19916;-85
2023/08/11 10:31:42;;;;;;;;;;;;;;;25.49;51.00;101557.19;5106618;28;19919;-84
2023/08/11 10:34:08;;;;;;;;;;;;;;;25.46;50.48;101565.16;5102614;28;20396;-83
2023/08/11 10:36:33;;;;;;;;;;;;;;;25.44;50.49;101558.03;5093636;28;19950;-86
2023/08/11 10:39:03;;;;;;;;;;;;;;;25.45;50.67;101549.16;5101356;28;20019;-84
2023/08/11 10:41:29;;;;;;;;;;;;;;;25.46;50.85;101565.16;5109761;28;19926;-85
2023/08/11 10:43:55;;;;;;;;;;;;;;;25.49;50.68;101559.84;5105657;28;19995;-86
2023/08/11 10:46:26;;;;;;;;;;;;;;;25.53;50.51;101564.34;5105174;28;19938;-87
2023/08/11 10:48:55;;;;;;;;;;;;;;;25.49;50.40;101561.66;5106356;28;19922;-86
2023/08/11 10:51:27;;;;;;;;;;;;;;;25.52;50.57;101559.84;5108987;28;19965;-86
2023/08/11 10:53:56;;;;;;;;;;;;;;;25.50;50.18;101553.59;5099307;28;19919;-85
2023/08/11 10:56:28;;;;;;;;;;;;;;;25.54;50.43;101550.06;5124540;27;19922;-87
2023/08/11 10:59:08;;;;;;;;;;;;;;;25.56;50.04;101545.63;5092168;28;19995;-84
2023/08/11 11:01:36;;;;;;;;;;;;;;;25.58;50.18;101538.50;5104606;28;19942;-86
2023/08/11 11:04:02;;;;;;;;;;;;;;;25.62;50.04;101541.19;5101985;27;19916;-85
2023/08/11 11:06:28;;;;;;;;;;;;;;;25.55;50.00;101542.97;5108618;28;19920;-85
2023/08/11 11:08:54;;;;;;;;;;;;;;;25.51;49.70;101554.53;5122971;27;19923;-86
2023/08/11 11:11:20;;;;;;;;;;;;;;;25.54;50.10;101555.41;5119592;27;19915;-85
2023/08/11 11:13:45;;;;;;;;;;;;;;;25.53;49.58;101558.09;5119416;27;20412;-85
2023/08/11 11:16:10;;;;;;;;;;;;;;;25.52;48.96;101562.53;5116459;27;19915;-85
2023/08/11 11:18:37;;;;;;;;;;;;;;;25.53;49.58;101552.75;5119217;27;20006;-86
2023/08/11 11:21:03;;;;;;;;;;;;;;;25.54;49.10;101546.50;5122797;27;20056;-86
2023/08/11 11:23:28;;;;;;;;;;;;;;;25.59;49.23;101542.97;5122082;27;19930;-89
2023/08/11 11:25:54;;;;;;;;;;;;;;;25.63;49.63;101546.53;5117308;27;19916;-87
2023/08/11 11:28:20;;;;;;;;;;;;;;;25.66;49.59;101543.00;5131424;27;20376;-87
2023/08/11 11:30:45;;;;;;;;;;;;;;;25.67;49.89;101548.34;5121219;27;20010;-88
2023/08/11 11:33:13;;;;;;;;;;;;;;;25.70;49.55;101548.38;5119982;27;20400;-86
2023/08/11 11:38:53;;;;;;;;;;;;;;;25.75;49.31;101546.59;5130599;27;19919;-84
2023/08/11 11:41:19;;;;;;;;;;;;;;;25.74;49.32;101549.28;5128457;27;19923;-86
2023/08/11 11:43:45;;;;;;;;;;;;;;;25.80;48.76;101546.59;5134284;27;19915;-85
2023/08/11 11:46:14;;;;;;;;;;;;;;;25.82;48.73;101538.59;5134536;27;19915;-85
2023/08/11 11:48:50;;;;;;;;;;;;;;;25.84;48.90;101543.03;5131681;27;20374;-86
2023/08/11 11:51:16;;;;;;;;;;;;;;;25.84;49.31;101539.47;5111619;28;20293;-85
2023/08/11 11:53:42;;;;;;;;;;;;;;;25.87;49.28;101540.41;5118532;27;19922;-87
2023/08/11 11:56:07;;;;;;;;;;;;;;;25.85;49.29;101543.97;5118060;28;19919;-85
2023/08/11 11:58:34;;;;;;;;;;;;;;;25.84;49.32;101536.81;5126452;28;19920;-86
2023/08/11 12:01:12;;;;;;;;;;;;;;;25.86;49.01;101545.72;5131680;27;19918;-86
2023/08/11 12:03:39;;;;;;;;;;;;;;;25.85;49.01;101552.88;5130872;28;19915;-86
2023/08/11 12:06:08;;;;;;;;;;;;;;;25.91;49.12;101560.06;5133026;27;19911;-86
2023/08/11 12:08:41;;;;;;;;;;;;;;;25.89;48.19;101543.13;5114541;27;19963;-83
2023/08/11 12:11:12;;;;;;;;;;;;;;;25.91;48.69;101552.94;5109965;28;19944;-87
2023/08/11 12:13:38;;;;;;;;;;;;;;;25.94;49.09;101562.75;5129267;28;19973;-88
2023/08/11 12:16:05;;;;;;;;;;;;;;;25.95;48.98;101545.78;5125184;28;19968;-86
2023/08/11 12:18:48;;;;;;;;;;;;;;;25.93;49.21;101539.53;5095261;28;19947;-86
2023/08/11 12:21:14;;;;;;;;;;;;;;;25.94;49.38;101546.69;5125830;28;20418;-86
2023/08/11 12:23:41;;;;;;;;;;;;;;;25.94;49.45;101560.97;5107373;28;19916;-87
2023/08/11 12:26:07;;;;;;;;;;;;;;;25.94;49.60;101560.06;5112293;28;19958;-86
2023/08/11 12:28:34;;;;;;;;;;;;;;;25.96;49.31;101552.94;5120930;28;19922;-86
2023/08/11 12:30:59;;;;;;;;;;;;;;;25.96;49.49;101553.81;5107173;28;20067;-86
2023/08/11 12:33:25;;;;;;;;;;;;;;;25.95;49.51;101548.47;5113395;28;20387;-85
2023/08/11 12:35:50;;;;;;;;;;;;;;;25.96;49.45;101552.94;5112434;28;20445;-86